LC10 LIEO-LICR
Flight info
| Callsign | LC10 |
|---|---|
| Flight time | 0h 58m |
| Altitude | 310 |
| Route | ATNE7K RUVIP DORAS TADIX VACCE FOSQ1R |
| Aircraft | B733/M-V/N |
Departure
| Time | 2026-04-16 07:53 |
|---|---|
| Airport | Olbia Costa Smeralda Airport (LIEO) |
Arrival
| Time | 2026-04-16 08:51 |
|---|---|
| Airport | Reggio Calabria Airport (LICR) |
| Time | Latitude | Longitude | Altitude | Speed | Heading |
|---|---|---|---|---|---|
| 2026-04-16 07:42 | 40.90220 | 9.51617 | 39 ft | 0 kts | 326° |
| 2026-04-16 07:48 | 40.90217 | 9.51619 | 38 ft | 2 kts | 326° |
| 2026-04-16 07:49 | 40.90188 | 9.51644 | 37 ft | 7 kts | 330° |
| 2026-04-16 07:49 | 40.90160 | 9.51638 | 37 ft | 0 kts | 54° |
| 2026-04-16 07:49 | 40.90174 | 9.51664 | 37 ft | 8 kts | 56° |
| 2026-04-16 07:49 | 40.90219 | 9.51750 | 36 ft | 12 kts | 56° |
| 2026-04-16 07:50 | 40.90187 | 9.51860 | 34 ft | 15 kts | 112° |
| 2026-04-16 07:50 | 40.90194 | 9.51997 | 34 ft | 15 kts | 57° |
| 2026-04-16 07:50 | 40.90260 | 9.52124 | 33 ft | 17 kts | 56° |
| 2026-04-16 07:50 | 40.90331 | 9.52260 | 31 ft | 18 kts | 56° |
| 2026-04-16 07:51 | 40.90411 | 9.52412 | 28 ft | 21 kts | 54° |
| 2026-04-16 07:51 | 40.90498 | 9.52579 | 25 ft | 23 kts | 56° |
| 2026-04-16 07:51 | 40.90570 | 9.52772 | 23 ft | 24 kts | 76° |
| 2026-04-16 07:51 | 40.90552 | 9.52914 | 22 ft | 16 kts | 151° |
| 2026-04-16 07:52 | 40.90449 | 9.52876 | 23 ft | 17 kts | 233° |
| 2026-04-16 07:52 | 40.90277 | 9.52549 | 27 ft | 77 kts | 236° |
| 2026-04-16 07:52 | 40.89836 | 9.51705 | 29 ft | 141 kts | 236° |
| 2026-04-16 07:52 | 40.89195 | 9.50501 | 232 ft | 172 kts | 233° |
| 2026-04-16 07:53 | 40.88450 | 9.49171 | 722 ft | 186 kts | 233° |
| 2026-04-16 07:53 | 40.87673 | 9.47818 | 1418 ft | 189 kts | 233° |
| 2026-04-16 07:53 | 40.86938 | 9.46392 | 1998 ft | 190 kts | 237° |
| 2026-04-16 07:53 | 40.86205 | 9.44945 | 2480 ft | 190 kts | 237° |
| 2026-04-16 07:54 | 40.85445 | 9.43459 | 2885 ft | 202 kts | 237° |
| 2026-04-16 07:54 | 40.84622 | 9.41863 | 3297 ft | 218 kts | 237° |
| 2026-04-16 07:54 | 40.83724 | 9.40131 | 3694 ft | 237 kts | 237° |
| 2026-04-16 07:54 | 40.82774 | 9.38306 | 4226 ft | 249 kts | 237° |
| 2026-04-16 07:55 | 40.81773 | 9.36393 | 4936 ft | 254 kts | 237° |
| 2026-04-16 07:55 | 40.80766 | 9.34472 | 5658 ft | 257 kts | 237° |
| 2026-04-16 07:55 | 40.79737 | 9.32501 | 5915 ft | 265 kts | 237° |
| 2026-04-16 07:55 | 40.78705 | 9.30533 | 5767 ft | 261 kts | 237° |
| 2026-04-16 07:56 | 40.77645 | 9.28595 | 5583 ft | 259 kts | 229° |
| 2026-04-16 07:56 | 40.76176 | 9.27233 | 5408 ft | 263 kts | 204° |
| 2026-04-16 07:56 | 40.74368 | 9.26844 | 5520 ft | 270 kts | 179° |
| 2026-04-16 07:56 | 40.72522 | 9.27369 | 5680 ft | 276 kts | 168° |
| 2026-04-16 07:57 | 40.70674 | 9.28056 | 5833 ft | 276 kts | 167° |
| 2026-04-16 07:57 | 40.68813 | 9.28759 | 6059 ft | 279 kts | 167° |
| 2026-04-16 07:57 | 40.66931 | 9.29474 | 6287 ft | 280 kts | 167° |
| 2026-04-16 07:57 | 40.65049 | 9.30192 | 6514 ft | 282 kts | 167° |
| 2026-04-16 07:58 | 40.63200 | 9.31039 | 6735 ft | 287 kts | 156° |
| 2026-04-16 07:58 | 40.61544 | 9.32567 | 6968 ft | 293 kts | 137° |
| 2026-04-16 07:58 | 40.60316 | 9.34715 | 7210 ft | 297 kts | 117° |
| 2026-04-16 07:58 | 40.59652 | 9.37273 | 7463 ft | 300 kts | 98° |
| 2026-04-16 07:59 | 40.59412 | 9.40036 | 7724 ft | 301 kts | 94° |
| 2026-04-16 07:59 | 40.59207 | 9.42822 | 8050 ft | 305 kts | 94° |
| 2026-04-16 07:59 | 40.58996 | 9.45608 | 8738 ft | 307 kts | 94° |
| 2026-04-16 07:59 | 40.58781 | 9.48395 | 9428 ft | 308 kts | 93° |
| 2026-04-16 08:00 | 40.58651 | 9.51198 | 10080 ft | 308 kts | 82° |
| 2026-04-16 08:00 | 40.59053 | 9.53992 | 10297 ft | 320 kts | 64° |
| 2026-04-16 08:00 | 40.60088 | 9.56655 | 10405 ft | 337 kts | 54° |
| 2026-04-16 08:00 | 40.61288 | 9.59348 | 10873 ft | 346 kts | 54° |
| 2026-04-16 08:01 | 40.62492 | 9.62078 | 11584 ft | 347 kts | 54° |
| 2026-04-16 08:01 | 40.63689 | 9.64813 | 12330 ft | 347 kts | 54° |
| 2026-04-16 08:01 | 40.64885 | 9.67563 | 12899 ft | 352 kts | 55° |
| 2026-04-16 08:01 | 40.66096 | 9.70356 | 13496 ft | 355 kts | 55° |
| 2026-04-16 08:02 | 40.67325 | 9.73196 | 14089 ft | 358 kts | 55° |
| 2026-04-16 08:02 | 40.69793 | 9.78911 | 15213 ft | 363 kts | 55° |
| 2026-04-16 08:02 | 40.71042 | 9.81804 | 15754 ft | 366 kts | 55° |
| 2026-04-16 08:03 | 40.72301 | 9.84722 | 16283 ft | 369 kts | 55° |
| 2026-04-16 08:03 | 40.73570 | 9.87665 | 16801 ft | 372 kts | 55° |
| 2026-04-16 08:03 | 40.74748 | 9.90717 | 17294 ft | 380 kts | 65° |
| 2026-04-16 08:03 | 40.75313 | 9.94164 | 17758 ft | 392 kts | 79° |
| 2026-04-16 08:04 | 40.75537 | 9.97757 | 18235 ft | 396 kts | 81° |
| 2026-04-16 08:04 | 40.75751 | 10.01382 | 18716 ft | 399 kts | 80° |
| 2026-04-16 08:04 | 40.75979 | 10.05028 | 19187 ft | 401 kts | 80° |
| 2026-04-16 08:04 | 40.76214 | 10.08699 | 19645 ft | 404 kts | 80° |
| 2026-04-16 08:05 | 40.76270 | 10.12425 | 20076 ft | 413 kts | 92° |
| 2026-04-16 08:05 | 40.75520 | 10.16135 | 20468 ft | 425 kts | 111° |
| 2026-04-16 08:05 | 40.74122 | 10.19607 | 20880 ft | 430 kts | 117° |
| 2026-04-16 08:05 | 40.72648 | 10.23036 | 21305 ft | 432 kts | 116° |
| 2026-04-16 08:06 | 40.71184 | 10.26496 | 21718 ft | 435 kts | 116° |
| 2026-04-16 08:06 | 40.69725 | 10.29986 | 22119 ft | 438 kts | 116° |
| 2026-04-16 08:06 | 40.68261 | 10.33503 | 22512 ft | 440 kts | 116° |
| 2026-04-16 08:06 | 40.66790 | 10.37040 | 22898 ft | 443 kts | 116° |
| 2026-04-16 08:07 | 40.65310 | 10.40597 | 23276 ft | 446 kts | 116° |
| 2026-04-16 08:07 | 40.63820 | 10.44174 | 23648 ft | 448 kts | 116° |
| 2026-04-16 08:07 | 40.62321 | 10.47770 | 24014 ft | 451 kts | 116° |
| 2026-04-16 08:07 | 40.60812 | 10.51384 | 24374 ft | 453 kts | 116° |
| 2026-04-16 08:08 | 40.59292 | 10.55020 | 24728 ft | 456 kts | 116° |
| 2026-04-16 08:08 | 40.57764 | 10.58671 | 25078 ft | 458 kts | 115° |
| 2026-04-16 08:08 | 40.56251 | 10.62283 | 25414 ft | 461 kts | 115° |
| 2026-04-16 08:08 | 40.54679 | 10.66031 | 25742 ft | 464 kts | 116° |
| 2026-04-16 08:09 | 40.53121 | 10.69750 | 26026 ft | 467 kts | 116° |
| 2026-04-16 08:09 | 40.51555 | 10.73481 | 26380 ft | 468 kts | 116° |
| 2026-04-16 08:09 | 40.49980 | 10.77224 | 26706 ft | 470 kts | 116° |
| 2026-04-16 08:09 | 40.48419 | 10.80928 | 27012 ft | 473 kts | 116° |
| 2026-04-16 08:10 | 40.46827 | 10.84701 | 27315 ft | 475 kts | 116° |
| 2026-04-16 08:10 | 40.45225 | 10.88490 | 27613 ft | 477 kts | 116° |
| 2026-04-16 08:10 | 40.43616 | 10.92294 | 27931 ft | 478 kts | 116° |
| 2026-04-16 08:10 | 40.42004 | 10.96096 | 28326 ft | 478 kts | 116° |
| 2026-04-16 08:11 | 40.40396 | 10.99886 | 28738 ft | 476 kts | 115° |
| 2026-04-16 08:11 | 40.38788 | 11.03671 | 29129 ft | 475 kts | 115° |
| 2026-04-16 08:11 | 40.37184 | 11.07444 | 29493 ft | 474 kts | 115° |
| 2026-04-16 08:11 | 40.35580 | 11.11210 | 29815 ft | 475 kts | 115° |
| 2026-04-16 08:12 | 40.33974 | 11.14979 | 30114 ft | 475 kts | 115° |
| 2026-04-16 08:12 | 40.32366 | 11.18745 | 30429 ft | 475 kts | 115° |
| 2026-04-16 08:12 | 40.30758 | 11.22507 | 30742 ft | 474 kts | 115° |
| 2026-04-16 08:12 | 40.29149 | 11.26269 | 31005 ft | 475 kts | 115° |
| 2026-04-16 08:13 | 40.27536 | 11.30034 | 31112 ft | 474 kts | 115° |
| 2026-04-16 08:13 | 40.25930 | 11.33775 | 31107 ft | 471 kts | 115° |
| 2026-04-16 08:13 | 40.22742 | 11.41194 | 31069 ft | 468 kts | 115° |
| 2026-04-16 08:14 | 40.19555 | 11.48595 | 31071 ft | 469 kts | 115° |
| 2026-04-16 08:14 | 40.16352 | 11.56011 | 31079 ft | 469 kts | 115° |
| 2026-04-16 08:15 | 40.13176 | 11.63348 | 31074 ft | 469 kts | 115° |
| 2026-04-16 08:15 | 40.09972 | 11.70747 | 31065 ft | 469 kts | 115° |
| 2026-04-16 08:16 | 40.06759 | 11.78142 | 31078 ft | 469 kts | 115° |
| 2026-04-16 08:16 | 40.03847 | 11.85699 | 31077 ft | 466 kts | 110° |
| 2026-04-16 08:17 | 40.01129 | 11.93346 | 31073 ft | 466 kts | 110° |
| 2026-04-16 08:17 | 39.98392 | 12.00984 | 31076 ft | 466 kts | 110° |
| 2026-04-16 08:19 | 39.87362 | 12.31455 | 31072 ft | 465 kts | 110° |
| 2026-04-16 08:20 | 39.84590 | 12.39055 | 31076 ft | 466 kts | 110° |
| 2026-04-16 08:20 | 39.81819 | 12.46654 | 31073 ft | 466 kts | 110° |
| 2026-04-16 08:21 | 39.79043 | 12.54247 | 31058 ft | 466 kts | 110° |
| 2026-04-16 08:21 | 39.76271 | 12.61811 | 31038 ft | 466 kts | 110° |
| 2026-04-16 08:22 | 39.73491 | 12.69385 | 31001 ft | 466 kts | 111° |
| 2026-04-16 08:22 | 39.70702 | 12.76967 | 31022 ft | 466 kts | 111° |
| 2026-04-16 08:23 | 39.67905 | 12.84539 | 31025 ft | 466 kts | 111° |
| 2026-04-16 08:23 | 39.65105 | 12.92103 | 31021 ft | 466 kts | 111° |
| 2026-04-16 08:24 | 39.62300 | 12.99655 | 31019 ft | 466 kts | 110° |
| 2026-04-16 08:24 | 39.59400 | 13.07099 | 31009 ft | 473 kts | 119° |
| 2026-04-16 08:25 | 39.55384 | 13.13906 | 31022 ft | 478 kts | 122° |
| 2026-04-16 08:25 | 39.51356 | 13.20712 | 31024 ft | 477 kts | 121° |
| 2026-04-16 08:26 | 39.47365 | 13.27572 | 31023 ft | 479 kts | 121° |
| 2026-04-16 08:26 | 39.43372 | 13.34425 | 31021 ft | 479 kts | 121° |
| 2026-04-16 08:27 | 39.39378 | 13.41262 | 31022 ft | 477 kts | 120° |
| 2026-04-16 08:27 | 39.35385 | 13.48086 | 31018 ft | 477 kts | 120° |
| 2026-04-16 08:28 | 39.31385 | 13.54907 | 31023 ft | 478 kts | 120° |
| 2026-04-16 08:28 | 39.27390 | 13.61703 | 31023 ft | 476 kts | 121° |
| 2026-04-16 08:29 | 39.23385 | 13.68513 | 30997 ft | 478 kts | 121° |
| 2026-04-16 08:29 | 39.19344 | 13.75371 | 31025 ft | 479 kts | 121° |
| 2026-04-16 08:30 | 39.15282 | 13.82236 | 31023 ft | 478 kts | 121° |
| 2026-04-16 08:30 | 39.11280 | 13.88986 | 31023 ft | 478 kts | 121° |
| 2026-04-16 08:31 | 39.07241 | 13.95785 | 31027 ft | 477 kts | 121° |
| 2026-04-16 08:31 | 39.03196 | 14.02578 | 31017 ft | 479 kts | 121° |
| 2026-04-16 08:32 | 38.99128 | 14.09398 | 31024 ft | 478 kts | 121° |
| 2026-04-16 08:32 | 38.95059 | 14.16203 | 31024 ft | 475 kts | 121° |
| 2026-04-16 08:33 | 38.91016 | 14.22951 | 31020 ft | 474 kts | 121° |
| 2026-04-16 08:33 | 38.86988 | 14.29632 | 31004 ft | 473 kts | 121° |
| 2026-04-16 08:34 | 38.83049 | 14.36318 | 30117 ft | 466 kts | 112° |
| 2026-04-16 08:34 | 38.81903 | 14.40088 | 29096 ft | 444 kts | 92° |
| 2026-04-16 08:34 | 38.81410 | 14.43971 | 28138 ft | 444 kts | 90° |
| 2026-04-16 08:35 | 38.80893 | 14.47913 | 26965 ft | 456 kts | 93° |
| 2026-04-16 08:35 | 38.80283 | 14.51856 | 26145 ft | 458 kts | 95° |
| 2026-04-16 08:35 | 38.79617 | 14.55819 | 25553 ft | 453 kts | 95° |
| 2026-04-16 08:35 | 38.78944 | 14.59730 | 25000 ft | 447 kts | 95° |
| 2026-04-16 08:36 | 38.78277 | 14.63583 | 24422 ft | 442 kts | 96° |
| 2026-04-16 08:36 | 38.77623 | 14.67349 | 23824 ft | 438 kts | 96° |
| 2026-04-16 08:36 | 38.76965 | 14.71137 | 23234 ft | 433 kts | 96° |
| 2026-04-16 08:36 | 38.76311 | 14.74889 | 22654 ft | 429 kts | 97° |
| 2026-04-16 08:37 | 38.75663 | 14.78595 | 22078 ft | 425 kts | 97° |
| 2026-04-16 08:37 | 38.75030 | 14.82209 | 21515 ft | 421 kts | 97° |
| 2026-04-16 08:37 | 38.74392 | 14.85843 | 20948 ft | 417 kts | 97° |
| 2026-04-16 08:37 | 38.73759 | 14.89442 | 20387 ft | 413 kts | 97° |
| 2026-04-16 08:38 | 38.73133 | 14.92999 | 19832 ft | 409 kts | 97° |
| 2026-04-16 08:38 | 38.72511 | 14.96520 | 19264 ft | 405 kts | 97° |
| 2026-04-16 08:38 | 38.71890 | 15.00038 | 18677 ft | 402 kts | 97° |
| 2026-04-16 08:38 | 38.71271 | 15.03528 | 18127 ft | 399 kts | 97° |
| 2026-04-16 08:39 | 38.70609 | 15.06953 | 17593 ft | 398 kts | 105° |
| 2026-04-16 08:39 | 38.69185 | 15.10018 | 17161 ft | 400 kts | 131° |
| 2026-04-16 08:39 | 38.67133 | 15.12341 | 17154 ft | 384 kts | 137° |
| 2026-04-16 08:39 | 38.65081 | 15.14521 | 16899 ft | 396 kts | 137° |
| 2026-04-16 08:40 | 38.62926 | 15.16816 | 16393 ft | 404 kts | 137° |
| 2026-04-16 08:40 | 38.60796 | 15.19091 | 15804 ft | 402 kts | 137° |
| 2026-04-16 08:40 | 38.58637 | 15.21404 | 15212 ft | 400 kts | 137° |
| 2026-04-16 08:40 | 38.56536 | 15.23655 | 14647 ft | 398 kts | 138° |
| 2026-04-16 08:41 | 38.54419 | 15.25924 | 14108 ft | 394 kts | 138° |
| 2026-04-16 08:41 | 38.52349 | 15.28141 | 13589 ft | 390 kts | 138° |
| 2026-04-16 08:41 | 38.50192 | 15.30182 | 13068 ft | 387 kts | 149° |
| 2026-04-16 08:41 | 38.47818 | 15.31804 | 12560 ft | 383 kts | 151° |
| 2026-04-16 08:42 | 38.45501 | 15.33356 | 12037 ft | 380 kts | 151° |
| 2026-04-16 08:42 | 38.43196 | 15.34912 | 11517 ft | 371 kts | 151° |
| 2026-04-16 08:42 | 38.40944 | 15.36439 | 11014 ft | 361 kts | 151° |
| 2026-04-16 08:42 | 38.38769 | 15.37916 | 10533 ft | 352 kts | 151° |
| 2026-04-16 08:43 | 38.36616 | 15.39380 | 10058 ft | 343 kts | 150° |
| 2026-04-16 08:43 | 38.34573 | 15.40768 | 9790 ft | 327 kts | 150° |
| 2026-04-16 08:43 | 38.32633 | 15.42085 | 9797 ft | 307 kts | 150° |
| 2026-04-16 08:43 | 38.30806 | 15.43325 | 9787 ft | 290 kts | 150° |
| 2026-04-16 08:44 | 38.29055 | 15.44513 | 9535 ft | 283 kts | 150° |
| 2026-04-16 08:44 | 38.27336 | 15.45664 | 9126 ft | 284 kts | 151° |
| 2026-04-16 08:44 | 38.25592 | 15.46827 | 8695 ft | 284 kts | 151° |
| 2026-04-16 08:44 | 38.23850 | 15.47988 | 8294 ft | 283 kts | 151° |
| 2026-04-16 08:45 | 38.22104 | 15.49153 | 7887 ft | 283 kts | 151° |
| 2026-04-16 08:45 | 38.20382 | 15.50301 | 7514 ft | 281 kts | 151° |
| 2026-04-16 08:45 | 38.18655 | 15.51452 | 7130 ft | 279 kts | 151° |
| 2026-04-16 08:45 | 38.16931 | 15.52601 | 6762 ft | 277 kts | 150° |
| 2026-04-16 08:46 | 38.15244 | 15.53722 | 6393 ft | 276 kts | 152° |
| 2026-04-16 08:46 | 38.13392 | 15.54273 | 6089 ft | 270 kts | 184° |
| 2026-04-16 08:46 | 38.11571 | 15.53715 | 5498 ft | 274 kts | 200° |
| 2026-04-16 08:46 | 38.09754 | 15.52858 | 4651 ft | 287 kts | 201° |
| 2026-04-16 08:47 | 38.07935 | 15.51996 | 4425 ft | 272 kts | 201° |
| 2026-04-16 08:47 | 38.06205 | 15.51178 | 4275 ft | 258 kts | 201° |
| 2026-04-16 08:47 | 38.04558 | 15.50450 | 4254 ft | 241 kts | 190° |
| 2026-04-16 08:47 | 38.02967 | 15.50696 | 4269 ft | 234 kts | 149° |
| 2026-04-16 08:48 | 38.01841 | 15.52120 | 4016 ft | 226 kts | 116° |
| 2026-04-16 08:48 | 38.01099 | 15.53859 | 3607 ft | 225 kts | 115° |
| 2026-04-16 08:48 | 38.00359 | 15.55593 | 3217 ft | 223 kts | 114° |
| 2026-04-16 08:48 | 38.00090 | 15.57448 | 2829 ft | 210 kts | 74° |
| 2026-04-16 08:49 | 38.00489 | 15.59187 | 2567 ft | 202 kts | 70° |
| 2026-04-16 08:49 | 38.00903 | 15.60871 | 2305 ft | 197 kts | 70° |
| 2026-04-16 08:49 | 38.01300 | 15.62485 | 2055 ft | 189 kts | 70° |
| 2026-04-16 08:49 | 38.01761 | 15.64081 | 1969 ft | 189 kts | 55° |
| 2026-04-16 08:50 | 38.02708 | 15.65151 | 1749 ft | 180 kts | 27° |
| 2026-04-16 08:50 | 38.03798 | 15.65890 | 1330 ft | 173 kts | 25° |
| 2026-04-16 08:50 | 38.04919 | 15.66180 | 910 ft | 163 kts | 357° |
| 2026-04-16 08:50 | 38.06020 | 15.65837 | 302 ft | 164 kts | 339° |
| 2026-04-16 08:51 | 38.07006 | 15.65234 | 45 ft | 145 kts | 334° |
| 2026-04-16 08:51 | 38.07716 | 15.64765 | 76 ft | 87 kts | 334° |
| 2026-04-16 08:51 | 38.07968 | 15.64627 | 83 ft | 23 kts | 355° |
| 2026-04-16 08:51 | 38.07936 | 15.64624 | 82 ft | 15 kts | 153° |
| 2026-04-16 08:52 | 38.07805 | 15.64708 | 79 ft | 27 kts | 153° |
| 2026-04-16 08:52 | 38.07606 | 15.64842 | 72 ft | 34 kts | 151° |
| 2026-04-16 08:52 | 38.07381 | 15.64988 | 59 ft | 38 kts | 153° |
| 2026-04-16 08:52 | 38.07305 | 15.65139 | 57 ft | 19 kts | 60° |
| 2026-04-16 08:53 | 38.07358 | 15.65266 | 64 ft | 3 kts | 64° |
| 2026-04-16 08:53 | 38.07363 | 15.65278 | 65 ft | 0 kts | 64° |
| 2026-04-16 08:53 | 38.07364 | 15.65285 | 65 ft | 0 kts | 82° |
| 2026-04-16 08:53 | 38.07362 | 15.65295 | 66 ft | 2 kts | 118° |
| 2026-04-16 08:54 | 38.07360 | 15.65303 | 66 ft | 0 kts | 106° |